Time;durP1;ratioP1;P1;durP2;ratioP2;P2;SDS_P1;SDS_P2;PMS_P1;PMS_P2;Temp;Humidity;BMP_temperature;BMP_pressure;BME280_temperature;BME280_humidity;BME280_pressure;Samples;Min_cycle;Max_cycle;Signal;HPM_P1;HPM_P2
2023/04/12 00:00:37;;;;;;;8.55;4.12;;;;;;;12.90;51.81;99781.02;1770984;80;21241;-58
2023/04/12 00:03:49;;;;;;;5.72;3.90;;;;;;;12.86;51.95;99778.90;1771091;80;21189;-58
2023/04/12 00:06:53;;;;;;;7.03;4.12;;;;;;;12.83;52.08;99781.51;1771031;80;21264;-59
2023/04/12 00:09:58;;;;;;;9.93;4.97;;;;;;;12.79;52.18;99776.12;1771167;80;21414;-59
2023/04/12 00:13:04;;;;;;;5.97;4.30;;;;;;;12.75;52.35;99776.19;1771064;79;21264;-58
2023/04/12 00:16:15;;;;;;;11.75;4.62;;;;;;;12.71;52.45;99777.67;1771145;80;21201;-59
2023/04/12 00:19:26;;;;;;;9.15;4.62;;;;;;;12.65;52.55;99771.63;1771106;80;21170;-56
2023/04/12 00:22:31;;;;;;;10.23;4.60;;;;;;;12.59;52.73;99775.16;1771109;79;21234;-57
2023/04/12 00:25:38;;;;;;;6.67;5.00;;;;;;;12.56;52.88;99771.45;1771064;81;21366;-60
2023/04/12 00:28:44;;;;;;;9.40;5.00;;;;;;;12.53;52.95;99769.62;1764365;81;21193;-58
2023/04/12 00:31:51;;;;;;;9.60;4.90;;;;;;;12.47;53.11;99765.81;1770938;81;21264;-59
2023/04/12 00:34:58;;;;;;;10.38;4.47;;;;;;;12.43;53.28;99764.51;1771130;81;21232;-59
2023/04/12 00:38:09;;;;;;;7.78;5.25;;;;;;;12.38;53.40;99768.41;1785108;79;21260;-58
2023/04/12 00:41:14;;;;;;;6.53;4.60;;;;;;;12.33;53.55;99768.17;1771177;81;21339;-59
2023/04/12 00:44:21;;;;;;;6.92;4.78;;;;;;;12.27;53.63;99758.52;1771165;79;21225;-59
2023/04/12 00:47:28;;;;;;;11.18;5.22;;;;;;;12.16;53.73;99752.22;1771117;80;21197;-59
2023/04/12 00:50:33;;;;;;;7.83;4.58;;;;;;;12.09;53.90;99757.66;1771135;81;21252;-58
2023/04/12 00:53:40;;;;;;;5.97;4.55;;;;;;;12.02;54.10;99747.16;1771086;79;21225;-58
2023/04/12 00:56:46;;;;;;;6.92;4.92;;;;;;;11.97;54.27;99749.67;1770939;79;21253;-57
2023/04/12 00:59:51;;;;;;;10.45;4.85;;;;;;;11.93;54.42;99750.59;1771211;80;21253;-57
2023/04/12 01:03:01;;;;;;;7.10;4.67;;;;;;;11.89;54.60;99747.91;1771079;80;21260;-57
2023/04/12 01:06:17;;;;;;;7.10;4.35;;;;;;;11.86;54.77;99737.34;1771004;81;21213;-57
2023/04/12 01:09:39;;;;;;;8.03;4.70;;;;;;;11.85;54.93;99734.80;1771021;80;21332;-57
2023/04/12 01:13:18;;;;;;;8.65;4.92;;;;;;;11.81;55.08;99737.09;1771256;79;21225;-58
2023/04/12 01:16:50;;;;;;;8.10;4.67;;;;;;;11.77;55.21;99730.32;1707857;83;21221;-58
2023/04/12 01:20:15;;;;;;;7.75;5.47;;;;;;;11.73;55.42;99726.27;1711001;80;21463;-57
2023/04/12 01:24:02;;;;;;;8.98;5.37;;;;;;;11.68;55.55;99726.05;1786935;80;21177;-56
2023/04/12 01:27:10;;;;;;;8.60;5.00;;;;;;;11.65;55.74;99717.36;1771866;80;21201;-58
2023/04/12 01:30:18;;;;;;;8.53;5.53;;;;;;;11.61;55.98;99707.79;1771088;80;21186;-57
2023/04/12 01:33:30;;;;;;;8.13;4.75;;;;;;;11.55;56.03;99703.11;1771000;81;21455;-58
2023/04/12 01:36:33;;;;;;;9.93;5.00;;;;;;;11.52;56.18;99702.14;1771123;80;21197;-57
2023/04/12 01:39:39;;;;;;;8.25;5.00;;;;;;;11.49;56.38;99701.17;1771596;78;21197;-56
2023/04/12 01:42:46;;;;;;;7.55;4.95;;;;;;;11.47;56.55;99692.29;1771280;80;21722;-57
2023/04/12 01:45:51;;;;;;;7.22;4.53;;;;;;;11.46;56.73;99692.83;1770941;80;21189;-57
2023/04/12 01:48:59;;;;;;;7.35;4.92;;;;;;;11.46;56.89;99680.50;1771158;80;21161;-56
2023/04/12 01:52:13;;;;;;;6.55;4.25;;;;;;;11.47;57.02;99685.44;1771241;80;21241;-56
2023/04/12 01:55:18;;;;;;;9.38;4.67;;;;;;;11.47;57.17;99685.44;1771666;80;21232;-57
2023/04/12 01:58:27;;;;;;;8.03;5.35;;;;;;;11.46;57.27;99691.46;1770794;81;21280;-57
2023/04/12 02:01:34;;;;;;;6.28;4.60;;;;;;;11.45;57.40;99680.66;1771112;80;21213;-57
2023/04/12 02:04:43;;;;;;;8.33;4.60;;;;;;;11.43;57.56;99669.91;1771738;80;21243;-58
2023/04/12 02:07:50;;;;;;;8.25;5.00;;;;;;;11.44;57.66;99674.88;1771123;80;21340;-58
2023/04/12 02:10:56;;;;;;;7.40;5.10;;;;;;;11.42;57.80;99665.48;1771227;80;21272;-57
2023/04/12 02:14:02;;;;;;;7.42;4.60;;;;;;;11.42;57.93;99664.63;1770669;80;21273;-58
2023/04/12 02:17:09;;;;;;;6.83;4.35;;;;;;;11.43;58.10;99664.42;1771130;80;21178;-58
2023/04/12 02:20:11;;;;;;;8.00;4.47;;;;;;;11.44;58.21;99666.14;1771406;80;21196;-57
2023/04/12 02:23:04;;;;;;;6.85;4.70;;;;;;;11.45;58.29;99656.86;1763450;81;21344;-57
2023/04/12 02:26:10;;;;;;;7.62;4.72;;;;;;;11.43;58.36;99657.58;1771655;79;21205;-58
2023/04/12 02:29:17;;;;;;;8.28;4.90;;;;;;;11.44;58.47;99657.06;1745752;80;21204;-59
2023/04/12 02:32:23;;;;;;;8.30;4.58;;;;;;;11.46;58.60;99659.95;1771665;79;21209;-57
2023/04/12 02:35:30;;;;;;;8.70;4.58;;;;;;;11.47;58.68;99658.03;1771897;80;21174;-57
2023/04/12 02:38:38;;;;;;;6.08;4.47;;;;;;;11.44;58.79;99655.18;1771417;80;21217;-57
2023/04/12 02:41:43;;;;;;;6.35;4.42;;;;;;;11.45;58.90;99660.11;1770208;78;21193;-58
2023/04/12 02:44:49;;;;;;;9.10;4.85;;;;;;;11.43;59.01;99659.48;1771395;80;21189;-58
2023/04/12 02:47:56;;;;;;;7.92;4.60;;;;;;;11.41;59.06;99658.32;1771144;80;21336;-58
2023/04/12 02:51:03;;;;;;;7.35;5.12;;;;;;;11.39;59.12;99657.66;1786835;80;21185;-57
2023/04/12 02:54:11;;;;;;;9.63;4.85;;;;;;;11.37;59.23;99650.70;1771359;80;21157;-57
2023/04/12 02:57:20;;;;;;;14.45;5.40;;;;;;;11.35;59.31;99651.41;1765500;80;21201;-57
2023/04/12 03:00:31;;;;;;;8.58;5.20;;;;;;;11.34;59.46;99644.22;1771159;80;21311;-58
2023/04/12 03:03:38;;;;;;;11.83;5.47;;;;;;;11.36;59.59;99653.09;1771027;80;21185;-58
2023/04/12 03:06:53;;;;;;;7.80;5.12;;;;;;;11.36;59.66;99652.58;1771918;80;21343;-60
2023/04/12 03:10:00;;;;;;;9.30;5.60;;;;;;;11.37;59.80;99646.05;1770631;80;21750;-59
2023/04/12 03:13:07;;;;;;;11.08;5.53;;;;;;;11.38;59.89;99644.16;1770549;80;21220;-59
2023/04/12 03:16:34;;;;;;;8.13;5.17;;;;;;;11.39;59.97;99647.21;1770700;79;21240;-60
2023/04/12 03:19:42;;;;;;;11.05;5.75;;;;;;;11.39;60.06;99645.33;1789030;79;21375;-59
2023/04/12 03:22:48;;;;;;;11.95;5.67;;;;;;;11.39;60.11;99647.21;1770916;80;21197;-59
2023/04/12 03:25:56;;;;;;;8.40;6.12;;;;;;;11.39;60.21;99637.63;1770980;80;21244;-59
2023/04/12 03:29:07;;;;;;;10.58;5.62;;;;;;;11.38;60.29;99633.20;1771091;80;21179;-60
2023/04/12 03:32:15;;;;;;;8.53;5.22;;;;;;;11.37;60.38;99637.83;1771168;79;21216;-59
2023/04/12 03:35:24;;;;;;;12.03;5.08;;;;;;;11.35;60.46;99634.97;1771301;79;21169;-59
2023/04/12 03:38:31;;;;;;;10.75;5.50;;;;;;;11.35;60.57;99636.34;1764221;80;21305;-58
2023/04/12 03:41:39;;;;;;;7.78;5.80;;;;;;;11.34;60.64;99636.86;1770776;80;21272;-59
2023/04/12 03:44:48;;;;;;;9.00;5.78;;;;;;;11.33;60.73;99637.05;1770518;80;21208;-59
2023/04/12 03:47:54;;;;;;;13.10;5.83;;;;;;;11.31;60.80;99633.15;1770334;80;21213;-58
2023/04/12 03:51:07;;;;;;;7.97;6.03;;;;;;;11.29;60.91;99634.41;1771121;80;21166;-58
2023/04/12 03:54:07;;;;;;;10.30;5.85;;;;;;;11.25;60.90;99631.72;1770681;79;21205;-59
2023/04/12 03:57:16;;;;;;;10.50;6.12;;;;;;;11.22;61.07;99633.48;1771599;80;21247;-59
2023/04/12 04:00:23;;;;;;;8.63;5.37;;;;;;;11.21;61.13;99636.73;1771149;80;21327;-60
2023/04/12 04:03:33;;;;;;;8.73;5.75;;;;;;;11.18;61.19;99637.69;1719389;82;21184;-59
2023/04/12 04:06:47;;;;;;;8.88;5.25;;;;;;;11.18;61.31;99641.80;1771261;80;21236;-58
2023/04/12 04:09:57;;;;;;;13.05;5.05;;;;;;;11.15;61.40;99634.80;1770990;80;21209;-58
2023/04/12 04:13:04;;;;;;;10.55;5.33;;;;;;;11.13;61.49;99638.80;1770308;79;21236;-59
2023/04/12 04:16:14;;;;;;;12.55;5.42;;;;;;;11.15;61.68;99639.42;1771267;80;21205;-59
2023/04/12 04:19:20;;;;;;;7.50;4.92;;;;;;;11.16;61.74;99637.02;1762776;79;21188;-59
2023/04/12 04:22:28;;;;;;;11.53;5.30;;;;;;;11.17;61.82;99635.97;1763827;81;21225;-60
2023/04/12 04:25:38;;;;;;;7.33;4.90;;;;;;;11.18;61.90;99636.31;1793346;79;21387;-59
2023/04/12 04:28:46;;;;;;;9.70;5.35;;;;;;;11.19;62.02;99636.63;1802464;78;21186;-59
2023/04/12 04:31:56;;;;;;;9.20;6.22;;;;;;;11.21;62.10;99635.37;1802655;79;21244;-59
2023/04/12 04:35:04;;;;;;;9.58;6.22;;;;;;;11.21;62.15;99638.66;1791644;79;21370;-58
2023/04/12 04:38:14;;;;;;;9.95;5.97;;;;;;;11.22;62.25;99640.34;1802438;79;21273;-60
2023/04/12 04:41:23;;;;;;;10.78;6.12;;;;;;;11.25;62.38;99633.09;1798777;79;21197;-59
2023/04/12 04:44:29;;;;;;;14.63;5.95;;;;;;;11.26;62.42;99638.37;1798708;79;21228;-59
2023/04/12 04:47:35;;;;;;;7.45;5.25;;;;;;;11.28;62.50;99636.28;1758417;81;21738;-59
2023/04/12 04:50:42;;;;;;;20.60;11.45;;;;;;;11.29;62.60;99642.63;1721541;82;21245;-59
2023/04/12 04:53:50;;;;;;;12.60;6.62;;;;;;;11.31;62.69;99636.39;1721239;82;21269;-59
2023/04/12 04:56:58;;;;;;;9.18;5.45;;;;;;;11.33;62.74;99638.42;1734176;82;21812;-59
2023/04/12 05:00:10;;;;;;;9.48;6.22;;;;;;;11.34;62.83;99637.37;1734877;82;21844;-58
2023/04/12 05:03:18;;;;;;;16.62;9.08;;;;;;;11.38;62.94;99635.94;1736125;82;21214;-59
2023/04/12 05:06:26;;;;;;;6.80;5.10;;;;;;;11.43;63.04;99629.34;1784939;79;21209;-58
2023/04/12 05:09:33;;;;;;;9.15;5.30;;;;;;;11.47;63.10;99630.11;1734533;81;22125;-59
2023/04/12 05:12:40;;;;;;;8.23;5.62;;;;;;;11.49;63.12;99634.02;1726332;82;21241;-59
2023/04/12 05:15:48;;;;;;;11.80;7.62;;;;;;;11.51;63.22;99625.91;1734793;81;21220;-59
2023/04/12 05:18:55;;;;;;;8.78;6.12;;;;;;;11.55;63.32;99630.47;1727415;82;22086;-59
2023/04/12 05:22:02;;;;;;;10.18;5.85;;;;;;;11.56;63.34;99630.27;1718986;83;21229;-59
2023/04/12 05:25:08;;;;;;;7.75;5.22;;;;;;;11.58;63.41;99630.06;1775320;79;21204;-58
2023/04/12 05:28:18;;;;;;;11.78;5.17;;;;;;;11.60;63.49;99629.35;1769881;81;21288;-59
2023/04/12 05:31:27;;;;;;;7.78;5.20;;;;;;;11.61;63.52;99623.67;1770619;81;21362;-59
2023/04/12 05:34:36;;;;;;;10.45;4.85;;;;;;;11.63;63.59;99625.73;1776293;79;21327;-59
2023/04/12 05:37:43;;;;;;;10.60;5.40;;;;;;;11.65;63.68;99622.78;1799098;79;21193;-59
2023/04/12 05:40:49;;;;;;;6.80;4.45;;;;;;;11.69;63.75;99617.20;1801412;79;21336;-60
2023/04/12 05:43:57;;;;;;;8.03;4.67;;;;;;;11.68;63.75;99621.00;1802685;79;21232;-60
2023/04/12 05:47:03;;;;;;;10.78;5.75;;;;;;;11.68;63.83;99617.75;1802018;79;21213;-59
2023/04/12 05:50:13;;;;;;;16.42;8.38;;;;;;;11.63;63.81;99621.61;1802910;79;21173;-59
2023/04/12 05:53:19;;;;;;;11.55;5.40;;;;;;;11.61;63.97;99614.59;1768375;79;21162;-59
2023/04/12 05:56:27;;;;;;;9.45;5.10;;;;;;;11.61;64.08;99614.59;1770665;80;21197;-60
2023/04/12 05:59:33;;;;;;;9.33;5.53;;;;;;;11.63;64.20;99607.91;1771375;79;21205;-59
2023/04/12 06:02:41;;;;;;;10.48;5.47;;;;;;;11.64;64.27;99611.47;1785008;79;21371;-59
2023/04/12 06:05:48;;;;;;;11.80;6.10;;;;;;;11.65;64.41;99602.22;1785526;79;21237;-59
2023/04/12 06:08:59;;;;;;;9.95;5.47;;;;;;;11.66;64.46;99603.39;1734627;81;21204;-59
2023/04/12 06:12:07;;;;;;;7.37;5.10;;;;;;;11.69;64.53;99606.23;1721010;83;22234;-59
2023/04/12 06:15:14;;;;;;;8.73;5.03;;;;;;;11.73;64.68;99606.17;1721109;82;21724;-60
2023/04/12 06:18:25;;;;;;;32.65;23.98;;;;;;;11.77;64.70;99604.70;1720915;82;21255;-60
2023/04/12 06:21:30;;;;;;;10.35;6.60;;;;;;;11.78;64.76;99602.30;1721375;83;21211;-61
2023/04/12 06:24:39;;;;;;;63.90;33.33;;;;;;;11.82;64.83;99611.80;1707686;83;21306;-61
2023/04/12 06:27:50;;;;;;;39.15;20.15;;;;;;;11.87;64.99;99596.45;1706022;83;21247;-61
2023/04/12 06:30:58;;;;;;;10.00;5.62;;;;;;;11.94;65.06;99602.80;1718367;83;21176;-59
2023/04/12 06:34:04;;;;;;;8.25;5.15;;;;;;;11.99;65.12;99603.03;1732044;82;21245;-60
2023/04/12 06:37:10;;;;;;;10.13;5.62;;;;;;;12.07;65.11;99605.30;1734490;81;22050;-60
2023/04/12 06:40:16;;;;;;;8.83;5.80;;;;;;;12.12;65.16;99607.73;1750584;82;21767;-60
2023/04/12 06:43:24;;;;;;;7.67;4.83;;;;;;;12.15;65.10;99607.84;1735303;82;21200;-59
2023/04/12 06:46:36;;;;;;;10.58;6.15;;;;;;;12.15;65.15;99610.58;1745866;81;21326;-61
2023/04/12 06:49:45;;;;;;;10.53;6.00;;;;;;;12.12;65.12;99607.73;1793026;79;21248;-61
2023/04/12 06:52:53;;;;;;;10.93;5.95;;;;;;;12.13;65.26;99606.67;1771642;79;21748;-60
2023/04/12 06:55:59;;;;;;;9.28;5.55;;;;;;;12.17;65.37;99616.20;1705750;83;21192;-61
2023/04/12 06:59:04;;;;;;;51.13;25.90;;;;;;;12.21;65.47;99606.50;1771453;79;21192;-61
2023/04/12 07:02:09;;;;;;;10.13;5.47;;;;;;;12.24;65.53;99596.48;1780416;79;21785;-59
2023/04/12 07:05:16;;;;;;;9.48;5.58;;;;;;;12.27;65.59;99600.73;1783714;78;21207;-59
2023/04/12 07:08:25;;;;;;;12.15;6.22;;;;;;;12.29;65.61;99607.69;1756892;81;21188;-60
2023/04/12 07:11:30;;;;;;;10.88;5.75;;;;;;;12.31;65.68;99597.36;1771755;79;21213;-59
2023/04/12 07:14:37;;;;;;;10.78;5.70;;;;;;;12.34;65.73;99600.20;1777661;79;21197;-60
2023/04/12 07:17:42;;;;;;;10.78;6.12;;;;;;;12.40;65.81;99593.92;1772330;80;21213;-60
2023/04/12 07:20:53;;;;;;;9.95;5.70;;;;;;;12.45;65.82;99594.97;1769436;80;21271;-61
2023/04/12 07:23:57;;;;;;;11.45;5.70;;;;;;;12.46;65.72;99599.42;1771624;81;21193;-60
2023/04/12 07:27:03;;;;;;;13.83;9.50;;;;;;;12.51;65.87;99592.77;1769443;81;21371;-60
2023/04/12 07:30:08;;;;;;;10.50;6.60;;;;;;;12.58;65.99;99592.78;1771828;81;21189;-60
2023/04/12 07:33:15;;;;;;;12.25;7.40;;;;;;;12.62;66.00;99591.33;1770032;80;21396;-61
2023/04/12 07:36:26;;;;;;;8.33;5.05;;;;;;;12.65;66.04;99594.52;1770942;81;21260;-61
2023/04/12 07:39:33;;;;;;;7.47;5.03;;;;;;;12.62;66.04;99584.47;1771634;80;21734;-60
2023/04/12 07:42:39;;;;;;;9.48;4.92;;;;;;;12.61;66.15;99581.38;1772505;79;21260;-60
2023/04/12 07:45:45;;;;;;;7.42;4.92;;;;;;;12.55;66.02;99574.84;1774853;79;21193;-59
2023/04/12 07:48:51;;;;;;;6.72;4.10;;;;;;;12.48;66.15;99584.95;1770552;80;21197;-59
2023/04/12 07:51:59;;;;;;;10.65;5.53;;;;;;;12.46;66.17;99584.33;1771254;80;21205;-60
2023/04/12 07:55:05;;;;;;;8.55;4.67;;;;;;;12.41;66.29;99582.73;1775442;79;21271;-59
2023/04/12 07:58:13;;;;;;;7.87;4.47;;;;;;;12.41;66.42;99588.22;1781990;79;21213;-60
2023/04/12 08:01:21;;;;;;;5.60;3.98;;;;;;;12.45;66.65;99581.77;1751636;81;21193;-60
2023/04/12 08:04:29;;;;;;;5.75;3.65;;;;;;;12.49;66.78;99574.83;1803096;79;21189;-60
2023/04/12 08:07:39;;;;;;;8.35;4.05;;;;;;;12.51;66.78;99582.33;1801976;79;21197;-61
2023/04/12 08:10:47;;;;;;;6.28;3.77;;;;;;;12.55;66.92;99572.09;1803162;79;21177;-59
2023/04/12 08:13:55;;;;;;;6.22;3.80;;;;;;;12.65;67.06;99569.80;1802659;79;21173;-59
2023/04/12 08:17:01;;;;;;;8.55;4.37;;;;;;;12.66;66.91;99576.97;1801471;79;21201;-60
2023/04/12 08:20:10;;;;;;;7.33;3.80;;;;;;;12.58;66.82;99563.44;1801874;79;21198;-60
2023/04/12 08:23:18;;;;;;;8.30;3.90;;;;;;;12.56;66.88;99568.28;1802045;78;21190;-60
2023/04/12 08:26:20;;;;;;;7.92;3.50;;;;;;;12.60;67.13;99567.34;1802672;79;21193;-60
2023/04/12 08:29:27;;;;;;;5.03;3.47;;;;;;;12.64;67.22;99570.83;1802834;78;21161;-61
2023/04/12 08:32:33;;;;;;;7.53;4.08;;;;;;;12.67;67.24;99564.92;1783651;79;21818;-60
2023/04/12 08:35:42;;;;;;;6.67;3.67;;;;;;;12.75;67.37;99562.53;1773246;79;21371;-59
2023/04/12 08:38:51;;;;;;;8.78;5.22;;;;;;;12.78;67.33;99568.97;1802590;79;21288;-60
2023/04/12 08:41:57;;;;;;;6.08;3.10;;;;;;;12.77;67.40;99558.50;1735240;81;21283;-60
2023/04/12 08:45:05;;;;;;;5.25;3.95;;;;;;;12.76;67.45;99563.69;1770994;79;21193;-59
2023/04/12 08:48:12;;;;;;;5.05;3.15;;;;;;;12.80;67.60;99565.46;1771415;79;21710;-59
2023/04/12 08:51:25;;;;;;;5.53;3.33;;;;;;;12.84;67.70;99557.14;1763359;80;21272;-60
2023/04/12 08:54:33;;;;;;;6.08;3.33;;;;;;;12.87;67.75;99559.46;1771886;79;21252;-59
2023/04/12 08:57:39;;;;;;;6.72;3.37;;;;;;;12.91;67.87;99557.45;1790578;79;21764;-61
2023/04/12 09:00:48;;;;;;;8.23;3.22;;;;;;;12.95;67.86;99549.12;1792725;79;21197;-60
2023/04/12 09:03:54;;;;;;;7.55;3.75;;;;;;;12.94;67.84;99553.42;1790295;78;21230;-61
2023/04/12 09:07:01;;;;;;;6.97;3.27;;;;;;;12.93;67.84;99543.50;1782541;79;21221;-60
2023/04/12 09:10:10;;;;;;;6.47;3.00;;;;;;;12.84;67.78;99547.52;1782015;79;21223;-60
2023/04/12 09:13:17;;;;;;;5.40;3.10;;;;;;;12.83;67.94;99545.81;1789168;78;21198;-59
2023/04/12 09:16:24;;;;;;;3.98;2.42;;;;;;;12.81;68.03;99554.27;1784182;79;21206;-59
2023/04/12 09:19:41;;;;;;;5.15;2.72;;;;;;;12.81;68.17;99541.08;1770295;80;21207;-59
2023/04/12 09:22:48;;;;;;;3.15;2.25;;;;;;;12.84;68.28;99542.89;1768822;81;21273;-59
2023/04/12 09:25:56;;;;;;;3.15;2.27;;;;;;;12.86;68.36;99536.63;1762448;79;21760;-60
2023/04/12 09:29:02;;;;;;;5.30;2.62;;;;;;;12.91;68.47;99542.86;1770066;80;21259;-60
2023/04/12 09:32:14;;;;;;;4.08;2.47;;;;;;;12.94;68.54;99541.91;1769945;80;21231;-60
2023/04/12 09:35:21;;;;;;;3.65;2.42;;;;;;;13.01;68.62;99531.81;1770274;80;21322;-60
2023/04/12 09:38:29;;;;;;;3.22;2.40;;;;;;;13.05;68.67;99541.31;1770078;79;21329;-60
2023/04/12 09:41:36;;;;;;;3.60;2.40;;;;;;;13.11;68.73;99530.84;1770928;80;21183;-60
2023/04/12 09:44:42;;;;;;;4.65;2.52;;;;;;;13.16;68.77;99531.05;1771180;80;21187;-60
2023/04/12 09:47:49;;;;;;;12.00;5.83;;;;;;;13.22;68.77;99530.73;1770942;80;21211;-60
2023/04/12 09:50:55;;;;;;;10.65;5.30;;;;;;;13.23;68.77;99531.90;1771637;79;21291;-60
2023/04/12 09:54:03;;;;;;;4.35;2.40;;;;;;;13.26;68.88;99537.48;1763924;81;21322;-60
2023/04/12 09:57:13;;;;;;;4.33;2.42;;;;;;;13.31;68.92;99534.95;1770894;79;21216;-61
2023/04/12 10:00:23;;;;;;;4.85;3.08;;;;;;;13.30;68.94;99534.09;1770687;79;21186;-59
2023/04/12 10:03:34;;;;;;;6.45;3.08;;;;;;;13.31;68.93;99536.32;1770770;80;22330;-60
2023/04/12 10:06:42;;;;;;;3.98;2.67;;;;;;;13.34;69.07;99533.14;1770169;80;21406;-60
2023/04/12 10:09:50;;;;;;;4.22;2.60;;;;;;;13.42;69.17;99531.02;1770225;81;22193;-61
2023/04/12 10:12:57;;;;;;;3.52;2.72;;;;;;;13.43;69.16;99535.45;1770586;79;22094;-60
2023/04/12 10:16:03;;;;;;;4.72;3.20;;;;;;;13.43;69.19;99530.47;1797053;79;21853;-60
2023/04/12 10:19:10;;;;;;;4.97;2.65;;;;;;;13.40;69.18;99532.27;1801546;79;21209;-60
2023/04/12 10:22:20;;;;;;;4.85;3.15;;;;;;;13.39;69.30;99531.45;1780936;79;21738;-58
2023/04/12 10:25:31;;;;;;;5.58;3.02;;;;;;;13.40;69.30;99537.25;1769121;79;21209;-59
2023/04/12 10:28:52;;;;;;;4.37;2.83;;;;;;;13.37;69.28;99534.94;1780470;79;21277;-63
2023/04/12 10:32:06;;;;;;;28.75;15.50;;;;;;;13.31;69.24;99533.05;1784088;79;21248;-58
2023/04/12 10:35:15;;;;;;;4.67;3.08;;;;;;;13.30;69.43;99536.84;1782617;78;21233;-58
2023/04/12 10:38:31;;;;;;;4.10;2.90;;;;;;;13.35;69.56;99537.05;1761238;79;21197;-58
2023/04/12 10:41:36;;;;;;;4.72;2.55;;;;;;;13.37;69.65;99534.94;1780244;79;21519;-59
2023/04/12 10:44:43;;;;;;;3.98;2.40;;;;;;;13.36;69.59;99524.16;1789425;79;21241;-58
2023/04/12 10:48:02;;;;;;;3.98;2.42;;;;;;;13.28;69.54;99538.98;1790391;79;21773;-61
2023/04/12 10:51:27;;;;;;;4.00;2.65;;;;;;;13.22;69.62;99541.18;1788168;79;21224;-59
2023/04/12 10:54:37;;;;;;;6.50;3.62;;;;;;;13.19;69.75;99531.99;1784188;79;21145;-60
2023/04/12 10:57:53;;;;;;;3.72;2.90;;;;;;;13.20;69.89;99531.47;1790636;79;21750;-60
2023/04/12 11:01:12;;;;;;;4.37;3.05;;;;;;;13.17;69.87;99527.27;1800600;79;21158;-61
2023/04/12 11:04:25;;;;;;;4.83;2.83;;;;;;;13.18;70.04;99521.22;1786168;79;21179;-61
2023/04/12 11:07:35;;;;;;;3.92;3.20;;;;;;;13.22;70.14;99517.00;1770411;80;21197;-61
2023/04/12 11:10:57;;;;;;;4.55;3.22;;;;;;;13.29;70.29;99524.16;1772962;78;21185;-62
2023/04/12 11:14:04;;;;;;;4.87;3.58;;;;;;;13.40;70.34;99515.27;1772129;80;21193;-64
2023/04/12 11:17:21;;;;;;;4.97;3.20;;;;;;;13.45;70.28;99506.36;1744188;81;21220;-62
2023/04/12 11:20:32;;;;;;;4.12;2.92;;;;;;;13.50;70.32;99501.92;1771269;80;21730;-62
2023/04/12 11:23:38;;;;;;;4.53;3.27;;;;;;;13.58;70.44;99504.95;1771477;80;21244;-61
2023/04/12 11:26:44;;;;;;;5.70;3.45;;;;;;;13.64;70.39;99504.64;1771830;80;21197;-60
2023/04/12 11:29:53;;;;;;;6.28;3.58;;;;;;;13.61;70.36;99507.27;1779040;79;21734;-61
2023/04/12 11:33:01;;;;;;;4.72;3.15;;;;;;;13.62;70.42;99506.75;1783558;79;21217;-61
2023/04/12 11:36:08;;;;;;;12.20;8.53;;;;;;;13.58;70.34;99499.45;1742304;82;21244;-63
2023/04/12 11:39:16;;;;;;;10.25;5.45;;;;;;;13.54;70.38;99496.28;1774103;79;21209;-61
2023/04/12 11:42:23;;;;;;;6.00;3.70;;;;;;;13.53;70.43;99491.86;1790079;79;21209;-60
2023/04/12 11:45:30;;;;;;;6.17;3.60;;;;;;;13.52;70.56;99486.03;1761248;81;21205;-59
2023/04/12 11:48:38;;;;;;;6.33;3.25;;;;;;;13.49;70.56;99493.34;1781906;79;21784;-61
2023/04/12 11:51:44;;;;;;;6.78;3.27;;;;;;;13.42;70.60;99488.41;1758771;78;21208;-61
2023/04/12 11:54:55;;;;;;;6.08;3.22;;;;;;;13.43;70.78;99488.71;1750710;81;21751;-62
2023/04/12 11:58:03;;;;;;;5.50;3.10;;;;;;;13.40;70.71;99484.16;1734502;81;21244;-60
2023/04/12 12:01:10;;;;;;;5.05;3.17;;;;;;;13.35;70.77;99476.58;1732629;82;21856;-60
2023/04/12 12:04:17;;;;;;;6.08;3.42;;;;;;;13.33;70.84;99479.23;1791945;79;21178;-63
2023/04/12 12:07:25;;;;;;;4.95;3.60;;;;;;;13.33;70.88;99487.48;1800843;78;21378;-61
2023/04/12 12:10:31;;;;;;;4.30;3.12;;;;;;;13.20;70.63;99482.01;1782862;78;21559;-61
2023/04/12 12:13:58;;;;;;;5.55;3.65;;;;;;;13.12;70.80;99466.59;1786079;79;21213;-60
2023/04/12 12:17:05;;;;;;;6.58;3.72;;;;;;;13.13;71.03;99455.91;1782038;79;21208;-60
2023/04/12 12:20:13;;;;;;;5.90;3.25;;;;;;;13.19;71.20;99452.84;1768973;80;21197;-60
2023/04/12 12:23:18;;;;;;;7.72;3.67;;;;;;;13.26;71.24;99460.53;1764792;79;21209;-61
2023/04/12 12:26:34;;;;;;;10.85;4.58;;;;;;;13.32;71.33;99461.89;1770963;79;21247;-62
2023/04/12 12:29:44;;;;;;;6.20;3.15;;;;;;;13.38;71.38;99463.77;1768830;81;21232;-61
2023/04/12 12:32:51;;;;;;;5.53;3.65;;;;;;;13.46;71.47;99460.78;1773524;79;21225;-63
2023/04/12 12:36:04;;;;;;;5.17;3.60;;;;;;;13.58;71.56;99465.60;1761198;80;21742;-61
2023/04/12 12:39:17;;;;;;;6.03;3.45;;;;;;;13.66;71.55;99455.73;1769259;80;21225;-61
2023/04/12 12:42:22;;;;;;;6.22;3.12;;;;;;;13.69;71.54;99463.55;1795691;79;21375;-62
2023/04/12 12:45:31;;;;;;;7.25;3.37;;;;;;;13.70;71.47;99467.45;1799305;79;21272;-61
2023/04/12 12:48:36;;;;;;;5.12;3.12;;;;;;;13.60;71.32;99464.34;1783905;78;21190;-62
2023/04/12 12:51:44;;;;;;;5.20;3.27;;;;;;;13.56;71.38;99463.07;1778541;79;21201;-64
2023/04/12 12:54:50;;;;;;;9.65;6.65;;;;;;;13.57;71.44;99469.43;1792159;79;21193;-61
2023/04/12 12:58:01;;;;;;;6.22;3.67;;;;;;;13.56;71.52;99465.83;1787053;79;21731;-62
2023/04/12 13:01:06;;;;;;;4.90;3.58;;;;;;;13.54;71.48;99480.34;1802139;79;21233;-62
2023/04/12 13:04:12;;;;;;;7.42;3.87;;;;;;;13.47;71.49;99479.51;1780567;79;21205;-61
2023/04/12 13:07:19;;;;;;;4.35;3.60;;;;;;;13.45;71.62;99467.35;1733043;82;21236;-62
2023/04/12 13:10:27;;;;;;;8.50;3.90;;;;;;;13.42;71.59;99473.81;1800927;79;21336;-61
2023/04/12 13:13:34;;;;;;;7.08;4.15;;;;;;;13.38;71.60;99477.52;1801117;79;21205;-62
2023/04/12 13:16:40;;;;;;;6.40;4.40;;;;;;;13.34;71.71;99470.77;1801126;79;21229;-62
2023/04/12 13:19:47;;;;;;;6.50;4.40;;;;;;;13.30;71.67;99471.42;1793408;79;21564;-63
2023/04/12 13:22:53;;;;;;;5.37;4.12;;;;;;;13.24;71.72;99470.92;1776232;79;21201;-61
2023/04/12 13:26:00;;;;;;;132.30;61.63;;;;;;;13.25;71.90;99461.08;1778750;79;21181;-62
2023/04/12 13:29:09;;;;;;;9.08;4.75;;;;;;;13.23;71.98;99475.55;1782722;79;21813;-62
2023/04/12 13:32:17;;;;;;;6.22;4.20;;;;;;;13.27;72.12;99467.18;1799148;78;21252;-64
2023/04/12 13:35:24;;;;;;;5.70;4.33;;;;;;;13.30;72.19;99464.00;1735588;81;21204;-62
2023/04/12 13:38:30;;;;;;;8.38;4.17;;;;;;;13.31;72.15;99467.08;1769903;80;21244;-62
2023/04/12 13:41:36;;;;;;;4.60;3.87;;;;;;;13.34;72.13;99462.52;1769230;79;21244;-62
2023/04/12 13:44:43;;;;;;;8.18;4.70;;;;;;;13.36;72.16;99467.80;1769869;80;21702;-64
2023/04/12 13:47:50;;;;;;;15.53;11.35;;;;;;;13.34;72.07;99454.28;1768883;80;21236;-62
2023/04/12 13:50:57;;;;;;;9.65;4.70;;;;;;;13.28;72.02;99461.16;1769992;80;21240;-61
2023/04/12 13:54:05;;;;;;;8.33;4.25;;;;;;;13.27;72.13;99465.81;1768685;79;21264;-62
2023/04/12 13:57:10;;;;;;;6.95;4.40;;;;;;;13.25;72.13;99465.72;1770672;80;21225;-63
2023/04/12 14:00:18;;;;;;;6.78;4.87;;;;;;;13.24;72.21;99463.49;1770489;80;21244;-62
2023/04/12 14:03:27;;;;;;;7.17;4.30;;;;;;;13.26;72.26;99468.25;1780592;79;21252;-63
2023/04/12 14:06:32;;;;;;;4.55;4.03;;;;;;;13.27;72.35;99472.68;1730686;81;21228;-62
2023/04/12 14:09:41;;;;;;;9.48;5.03;;;;;;;13.30;72.41;99478.30;1734768;81;21759;-61
2023/04/12 14:12:47;;;;;;;7.97;4.67;;;;;;;13.31;72.49;99475.33;1734209;82;21212;-60
2023/04/12 14:15:53;;;;;;;5.80;4.80;;;;;;;13.27;72.43;99479.55;1732855;81;21165;-60
2023/04/12 14:19:00;;;;;;;6.75;4.60;;;;;;;13.23;72.45;99476.93;1731415;82;21190;-62
2023/04/12 14:22:06;;;;;;;10.75;5.00;;;;;;;13.17;72.41;99482.44;1738582;82;21285;-61
2023/04/12 14:25:13;;;;;;;19.77;14.68;;;;;;;13.14;72.45;99488.36;1790259;79;21472;-61
2023/04/12 14:28:20;;;;;;;12.35;6.12;;;;;;;13.12;72.47;99483.08;1799768;79;21253;-60
2023/04/12 14:31:28;;;;;;;7.40;5.30;;;;;;;13.08;72.46;99489.23;1770160;80;21217;-63
2023/04/12 14:34:36;;;;;;;6.92;4.70;;;;;;;13.05;72.54;99493.23;1774548;79;21480;-62
2023/04/12 14:37:43;;;;;;;7.67;4.20;;;;;;;13.05;72.61;99498.72;1778474;79;21272;-62
2023/04/12 14:40:53;;;;;;;5.45;3.90;;;;;;;13.06;72.63;99489.96;1779237;79;21190;-62
2023/04/12 14:43:57;;;;;;;10.00;4.45;;;;;;;13.06;72.65;99493.56;1769387;80;21248;-61